Time;durP1;ratioP1;P1;durP2;ratioP2;P2;SDS_P1;SDS_P2;PMS_P1;PMS_P2;Temp;Humidity;BMP_temperature;BMP_pressure;BME280_temperature;BME280_humidity;BME280_pressure;Samples;Min_cycle;Max_cycle;Signal;HPM_P1;HPM_P2
2021/11/23 00:00:12;;;;;;;3.40;2.23;;;-0.60;99.90;-1.20;101635.00;;;;4980179;28;82877;-62
2021/11/23 00:02:39;;;;;;;4.97;2.03;;;-0.80;99.90;-1.20;101626.00;;;;4979072;28;82857;-62
2021/11/23 00:05:07;;;;;;;2.10;1.87;;;-0.80;99.90;-1.20;101621.00;;;;4978375;28;83671;-62
2021/11/23 00:07:33;;;;;;;3.03;1.70;;;-0.80;99.90;-1.20;101630.00;;;;4979567;28;82430;-63
2021/11/23 00:09:59;;;;;;;1.53;1.20;;;-0.90;99.90;-1.20;101634.00;;;;4979400;28;96131;-63
2021/11/23 00:12:25;;;;;;;1.40;1.30;;;-0.80;99.90;-1.20;101627.00;;;;4978759;28;112771;-63
2021/11/23 00:14:51;;;;;;;7.30;2.33;;;-0.70;99.90;-1.20;101626.00;;;;4979147;28;82505;-62
2021/11/23 00:17:18;;;;;;;1.57;1.47;;;-0.80;99.90;-1.20;101620.00;;;;4977940;28;88266;-63
2021/11/23 00:19:43;;;;;;;2.60;2.03;;;-0.80;99.90;-1.20;101625.00;;;;4979244;28;83142;-62
2021/11/23 00:22:09;;;;;;;1.87;1.77;;;-0.80;99.90;-1.20;101628.00;;;;4978536;28;111658;-62
2021/11/23 00:24:37;;;;;;;3.70;1.73;;;-0.80;99.90;-1.20;101625.00;;;;4964158;28;86525;-63
2021/11/23 00:27:04;;;;;;;2.67;2.07;;;-0.80;99.90;-1.20;101642.00;;;;4976107;28;82843;-62
2021/11/23 00:29:31;;;;;;;2.10;1.90;;;-0.40;99.90;-1.20;101635.00;;;;4978051;28;94883;-63
2021/11/23 00:31:56;;;;;;;6.27;2.20;;;-0.80;99.90;-1.20;101628.00;;;;4978712;28;83843;-63
2021/11/23 00:34:22;;;;;;;6.50;2.50;;;-0.90;99.90;-1.30;101630.00;;;;4962650;28;110822;-63
2021/11/23 00:36:48;;;;;;;1.47;1.37;;;-0.80;99.90;-1.30;101637.00;;;;4977115;28;109077;-63
2021/11/23 00:39:13;;;;;;;1.77;1.67;;;-0.90;99.90;-1.30;101629.00;;;;4978230;28;113139;-63
2021/11/23 00:41:39;;;;;;;2.30;2.10;;;-0.90;99.90;-1.30;101625.00;;;;4977797;28;113359;-63
2021/11/23 00:44:05;;;;;;;2.87;2.00;;;-0.60;99.90;-1.30;101625.00;;;;4979013;28;90359;-64
2021/11/23 00:46:30;;;;;;;2.03;1.77;;;-0.90;99.90;-1.30;101628.00;;;;4978840;28;103588;-63
2021/11/23 00:48:56;;;;;;;2.40;1.77;;;-1.00;99.90;-1.30;101630.00;;;;4977861;28;109743;-63
2021/11/23 00:51:22;;;;;;;2.00;1.70;;;-1.00;99.90;-1.30;101637.00;;;;4978767;28;83639;-62
2021/11/23 00:53:48;;;;;;;2.10;1.50;;;-1.00;99.90;-1.30;101634.00;;;;4977980;28;84258;-62
2021/11/23 00:56:14;;;;;;;2.40;1.93;;;-1.00;99.90;-1.30;101645.00;;;;4969348;28;91131;-62
2021/11/23 00:58:39;;;;;;;2.03;1.60;;;-0.90;99.90;-1.30;101640.00;;;;4958941;28;98301;-63
2021/11/23 01:01:05;;;;;;;3.83;2.03;;;-1.00;99.90;-1.40;101647.00;;;;4957972;28;113372;-63
2021/11/23 01:03:32;;;;;;;2.00;1.63;;;-1.00;99.90;-1.40;101640.00;;;;4958976;28;100029;-63
2021/11/23 01:06:00;;;;;;;2.50;1.93;;;-1.00;99.90;-1.40;101648.00;;;;4960323;28;82786;-63
2021/11/23 01:08:27;;;;;;;1.30;1.20;;;-1.00;99.90;-1.40;101636.00;;;;4958820;28;84067;-64
2021/11/23 01:10:54;;;;;;;1.67;1.50;;;-1.00;99.90;-1.40;101637.00;;;;4959263;28;82481;-63
2021/11/23 01:13:21;;;;;;;2.80;2.03;;;-1.00;99.90;-1.40;101633.00;;;;4958766;28;82525;-63
2021/11/23 01:15:46;;;;;;;1.37;1.23;;;-0.90;99.90;-1.40;101627.00;;;;4958689;28;92007;-64
2021/11/23 01:18:13;;;;;;;3.87;2.03;;;-1.00;99.90;-1.40;101615.00;;;;4964541;28;100112;-64
2021/11/23 01:20:39;;;;;;;2.27;2.00;;;-1.00;99.90;-1.40;101620.00;;;;4973667;28;83301;-62
2021/11/23 01:23:06;;;;;;;2.13;1.93;;;-1.00;99.90;-1.40;101618.00;;;;4977450;28;96500;-63
2021/11/23 01:25:33;;;;;;;1.80;1.60;;;-1.00;99.90;-1.40;101619.00;;;;4979628;28;82702;-62
2021/11/23 01:27:59;;;;;;;2.10;2.00;;;-1.00;99.90;-1.40;101618.00;;;;4978362;28;90174;-63
2021/11/23 01:30:25;;;;;;;3.73;2.00;;;-1.00;99.90;-1.40;101621.00;;;;4979046;28;83079;-64
2021/11/23 01:32:51;;;;;;;1.97;1.77;;;-1.00;99.90;-1.40;101605.00;;;;4975912;28;110974;-63
2021/11/23 01:35:16;;;;;;;1.73;1.47;;;-1.00;99.90;-1.40;101604.00;;;;4977795;28;109834;-64
2021/11/23 01:37:44;;;;;;;7.20;1.90;;;-1.00;99.90;-1.40;101603.00;;;;4978622;28;83149;-63
2021/11/23 01:40:12;;;;;;;1.57;1.33;;;-1.00;99.90;-1.40;101607.00;;;;4978785;28;83468;-62
2021/11/23 01:42:38;;;;;;;3.43;1.60;;;-1.00;99.90;-1.40;101601.00;;;;4977989;28;91583;-62
2021/11/23 01:45:06;;;;;;;2.40;1.83;;;-1.00;99.90;-1.30;101597.00;;;;4962426;28;95961;-63
2021/11/23 01:47:31;;;;;;;2.10;1.63;;;-1.00;99.90;-1.30;101614.00;;;;4978112;28;90297;-63
2021/11/23 01:49:57;;;;;;;2.30;1.70;;;-1.00;99.90;-1.30;101595.00;;;;4974889;28;104842;-63
2021/11/23 01:52:23;;;;;;;1.83;1.73;;;-1.00;99.90;-1.30;101602.00;;;;4958494;28;82624;-63
2021/11/23 01:54:49;;;;;;;1.60;1.50;;;-1.00;99.90;-1.30;101595.00;;;;4952968;28;91028;-62
2021/11/23 01:57:16;;;;;;;3.80;2.00;;;-0.90;99.90;-1.30;101598.00;;;;4959430;28;83106;-62
2021/11/23 01:59:42;;;;;;;2.30;1.80;;;-1.00;99.90;-1.30;101593.00;;;;4962003;28;82760;-62
2021/11/23 02:02:08;;;;;;;1.60;1.50;;;-0.90;99.90;-1.30;101590.00;;;;4957740;28;98663;-62
2021/11/23 02:04:34;;;;;;;1.90;1.67;;;-0.90;99.90;-1.20;101596.00;;;;4972795;28;109764;-63
2021/11/23 02:07:00;;;;;;;2.00;1.90;;;-0.90;99.90;-1.20;101601.00;;;;4959170;28;95871;-62
2021/11/23 02:09:26;;;;;;;3.07;2.03;;;-1.00;99.90;-1.20;101594.00;;;;4957590;28;114278;-62
2021/11/23 02:11:52;;;;;;;2.40;2.10;;;-0.90;99.90;-1.20;101593.00;;;;4958753;28;82566;-62
2021/11/23 02:14:19;;;;;;;1.70;1.60;;;-0.80;99.90;-1.20;101613.00;;;;4959708;28;82366;-62
2021/11/23 02:16:45;;;;;;;2.30;2.10;;;-0.90;99.90;-1.20;101599.00;;;;4957377;28;82609;-62
2021/11/23 02:19:11;;;;;;;2.83;1.90;;;-0.80;99.90;-1.20;101602.00;;;;4957510;28;112701;-63
2021/11/23 02:21:37;;;;;;;1.90;1.63;;;-0.80;99.90;-1.20;101593.00;;;;4939215;28;90826;-63
2021/11/23 02:24:03;;;;;;;2.13;1.90;;;-0.70;99.90;-1.20;101600.00;;;;4969463;28;93557;-64
2021/11/23 02:26:29;;;;;;;2.27;1.50;;;-0.70;99.90;-1.10;101603.00;;;;4967616;28;94487;-63
2021/11/23 02:28:56;;;;;;;1.70;1.60;;;-0.90;99.90;-1.20;101606.00;;;;4967998;28;83172;-64
2021/11/23 02:31:24;;;;;;;1.90;1.77;;;-0.80;99.90;-1.10;101598.00;;;;4977499;28;83556;-63
2021/11/23 02:33:50;;;;;;;2.70;1.80;;;-0.80;99.90;-1.10;101598.00;;;;4978135;28;83369;-64
2021/11/23 02:36:17;;;;;;;2.17;1.73;;;-0.80;99.90;-1.10;101603.00;;;;4976406;28;83268;-62
2021/11/23 02:38:43;;;;;;;2.87;2.00;;;-0.50;99.90;-1.10;101613.00;;;;4977468;28;82666;-62
2021/11/23 02:41:12;;;;;;;2.60;1.93;;;-0.60;99.90;-1.10;101609.00;;;;4969087;28;107336;-62
2021/11/23 02:43:39;;;;;;;2.47;2.07;;;-0.80;99.90;-1.10;101614.00;;;;4960746;28;82794;-63
2021/11/23 02:46:06;;;;;;;2.27;1.90;;;-0.70;99.90;-1.10;101613.00;;;;4961197;28;84356;-63
2021/11/23 02:48:32;;;;;;;1.73;1.63;;;-0.80;99.90;-1.10;101613.00;;;;4962304;28;82756;-63
2021/11/23 02:51:14;;;;;;;3.00;2.00;;;-0.70;99.90;-1.10;101619.00;;;;4961357;28;98566;-62
2021/11/23 02:53:40;;;;;;;1.97;1.87;;;-0.60;99.90;-1.10;101609.00;;;;4968696;28;82819;-63
2021/11/23 02:56:06;;;;;;;3.80;2.13;;;-0.10;99.90;-1.10;101623.00;;;;4964820;28;84022;-64
2021/11/23 02:58:33;;;;;;;2.67;2.47;;;-0.80;99.90;-1.10;101599.00;;;;4960466;28;99396;-62
2021/11/23 03:01:24;;;;;;;2.97;1.97;;;-0.70;99.90;-1.10;101616.00;;;;4961544;28;82696;-63
2021/11/23 03:03:51;;;;;;;1.67;1.57;;;-0.80;99.90;-1.10;101621.00;;;;4961197;28;82775;-62
2021/11/23 03:06:17;;;;;;;2.77;2.47;;;-0.80;99.90;-1.10;101623.00;;;;4961106;28;82814;-62
2021/11/23 03:08:45;;;;;;;2.00;1.90;;;0.30;99.90;-1.10;101617.00;;;;4967764;28;83661;-63
2021/11/23 03:11:12;;;;;;;5.77;2.63;;;-0.80;99.90;-1.10;101626.00;;;;4980710;28;85259;-64
2021/11/23 03:13:38;;;;;;;3.50;2.67;;;-0.70;99.90;-1.10;101628.00;;;;4980216;28;93211;-62
2021/11/23 03:16:04;;;;;;;3.10;2.23;;;-0.80;99.90;-1.20;101620.00;;;;4961388;28;112943;-62
2021/11/23 03:18:30;;;;;;;3.47;2.50;;;-0.70;99.90;-1.20;101616.00;;;;4979009;28;82877;-63
2021/11/23 03:20:56;;;;;;;2.67;2.37;;;-0.90;99.90;-1.20;101625.00;;;;4980404;28;83584;-62
2021/11/23 03:23:22;;;;;;;5.80;2.23;;;-0.80;99.90;-1.20;101618.00;;;;4974918;28;82800;-63
2021/11/23 03:25:48;;;;;;;3.67;2.90;;;-0.80;99.90;-1.20;101618.00;;;;4960941;28;83025;-63
2021/11/23 03:28:15;;;;;;;4.50;2.40;;;-0.80;99.90;-1.20;101608.00;;;;4960963;28;83033;-63
2021/11/23 03:30:40;;;;;;;2.57;2.20;;;-0.80;99.90;-1.20;101607.00;;;;4959948;28;108321;-63
2021/11/23 03:33:08;;;;;;;4.43;2.83;;;-0.80;99.90;-1.10;101596.00;;;;4962724;28;109219;-63
2021/11/23 03:35:39;;;;;;;4.33;3.00;;;-0.80;99.90;-1.10;101600.00;;;;4979426;28;82714;-64
2021/11/23 03:38:07;;;;;;;5.30;3.43;;;-0.80;99.90;-1.10;101594.00;;;;4977824;28;94940;-63
2021/11/23 03:40:35;;;;;;;3.00;2.80;;;-0.70;99.90;-1.00;101599.00;;;;4980797;28;82694;-63
2021/11/23 03:43:02;;;;;;;3.67;3.13;;;-0.60;99.90;-1.00;101584.00;;;;4977547;28;82760;-62
2021/11/23 03:45:28;;;;;;;4.57;3.20;;;-0.70;99.90;-1.00;101579.00;;;;4963640;28;83895;-62
2021/11/23 03:47:55;;;;;;;4.07;3.33;;;-0.70;99.90;-1.00;101590.00;;;;4981286;28;110023;-62
2021/11/23 03:50:21;;;;;;;3.70;3.03;;;-0.60;99.90;-1.00;101576.00;;;;4986938;28;82846;-65
2021/11/23 03:52:48;;;;;;;4.10;3.27;;;-0.60;99.90;-0.90;101578.00;;;;4968370;28;82733;-62
2021/11/23 03:55:17;;;;;;;3.90;3.60;;;-0.60;99.90;-0.90;101577.00;;;;4960681;28;83658;-61
2021/11/23 03:57:49;;;;;;;3.30;2.70;;;-0.60;99.90;-0.90;101571.00;;;;4959880;28;83361;-62
2021/11/23 04:00:19;;;;;;;4.83;3.73;;;-0.50;99.90;-0.80;101566.00;;;;4960610;28;82727;-64
2021/11/23 04:02:48;;;;;;;5.57;3.33;;;-0.50;99.90;-0.80;101572.00;;;;4960516;28;81704;-64
2021/11/23 04:05:15;;;;;;;4.83;4.13;;;-0.40;99.90;-0.70;101562.00;;;;4974023;28;84020;-64
2021/11/23 04:07:41;;;;;;;4.27;3.60;;;-0.40;99.90;-0.70;101575.00;;;;4970913;28;83288;-63
2021/11/23 04:10:13;;;;;;;5.00;3.77;;;0.30;99.90;-0.60;101579.00;;;;4959789;28;83871;-64
2021/11/23 04:12:39;;;;;;;6.30;4.33;;;-0.40;99.90;-0.60;101572.00;;;;4959935;28;82739;-63
2021/11/23 04:15:07;;;;;;;3.90;3.43;;;-0.30;99.90;-0.50;101568.00;;;;4960062;28;82798;-62
2021/11/23 04:17:33;;;;;;;6.27;3.83;;;-0.20;99.90;-0.50;101573.00;;;;4966520;28;83034;-64
2021/11/23 04:19:59;;;;;;;3.93;3.53;;;-0.20;99.90;-0.40;101566.00;;;;4979004;28;95891;-62
2021/11/23 04:22:25;;;;;;;4.77;4.23;;;-0.20;99.90;-0.40;101561.00;;;;4978951;28;109104;-63
2021/11/23 04:24:51;;;;;;;6.37;4.23;;;-0.10;99.90;-0.40;101579.00;;;;4961519;28;83177;-64
2021/11/23 04:27:17;;;;;;;5.93;4.07;;;0.00;99.90;-0.40;101567.00;;;;4958897;28;113503;-64
2021/11/23 04:29:43;;;;;;;5.67;4.40;;;-0.10;99.90;-0.40;101572.00;;;;4976755;28;82697;-63
2021/11/23 04:32:09;;;;;;;7.40;4.87;;;0.50;99.90;-0.30;101566.00;;;;4970860;28;109080;-63
2021/11/23 04:34:34;;;;;;;4.70;4.00;;;-0.10;99.90;-0.40;101573.00;;;;4958827;28;96964;-64
2021/11/23 04:37:00;;;;;;;6.93;4.83;;;0.00;99.90;-0.30;101574.00;;;;4977911;28;84545;-63
2021/11/23 04:39:26;;;;;;;5.17;4.67;;;0.00;99.90;-0.30;101567.00;;;;4979957;28;82847;-63
2021/11/23 04:41:51;;;;;;;6.63;4.40;;;0.00;99.90;-0.30;101571.00;;;;4976746;28;105768;-63
2021/11/23 04:44:17;;;;;;;8.73;5.17;;;0.00;99.90;-0.30;101563.00;;;;4979038;28;105818;-63
2021/11/23 04:46:43;;;;;;;7.90;4.23;;;0.00;99.90;-0.30;101561.00;;;;4978562;28;102716;-63
2021/11/23 04:49:09;;;;;;;7.40;5.30;;;0.00;99.90;-0.30;101559.00;;;;4979078;28;82604;-63
2021/11/23 04:51:35;;;;;;;6.30;4.07;;;0.00;99.90;-0.20;101561.00;;;;4980141;28;82036;-63
2021/11/23 04:54:02;;;;;;;5.03;4.47;;;0.10;99.90;-0.20;101549.00;;;;4979205;28;82601;-62
2021/11/23 04:56:28;;;;;;;4.90;3.80;;;0.90;99.90;-0.20;101551.00;;;;4979634;28;82730;-62
2021/11/23 04:58:54;;;;;;;7.57;4.50;;;0.10;99.90;-0.20;101564.00;;;;4977612;28;110548;-62
2021/11/23 05:01:20;;;;;;;4.77;3.70;;;0.10;99.90;-0.30;101566.00;;;;4960721;28;82953;-63
2021/11/23 05:03:46;;;;;;;5.43;4.33;;;0.10;99.90;-0.30;101559.00;;;;4958866;28;84088;-63
2021/11/23 05:06:11;;;;;;;5.00;4.40;;;0.10;99.90;-0.20;101554.00;;;;4964104;28;83428;-63
2021/11/23 05:08:37;;;;;;;6.90;3.90;;;0.10;99.90;-0.20;101560.00;;;;4958214;28;103762;-63
2021/11/23 05:11:03;;;;;;;7.10;5.00;;;0.10;99.90;-0.20;101551.00;;;;4959773;28;107886;-63
2021/11/23 05:13:28;;;;;;;5.87;5.03;;;0.00;99.90;-0.20;101558.00;;;;4959260;28;82727;-63
2021/11/23 05:15:54;;;;;;;5.93;5.17;;;0.10;99.90;-0.20;101546.00;;;;4959421;28;86879;-64
2021/11/23 05:18:20;;;;;;;6.27;3.77;;;1.00;99.90;-0.20;101544.00;;;;4959869;28;85663;-63
2021/11/23 05:20:46;;;;;;;7.50;5.40;;;1.00;99.90;-0.20;101548.00;;;;4969840;28;82858;-63
2021/11/23 05:23:11;;;;;;;4.90;4.40;;;0.10;99.90;-0.20;101541.00;;;;4957964;28;84469;-62
2021/11/23 05:25:37;;;;;;;4.47;3.90;;;0.10;99.90;-0.20;101547.00;;;;4970725;28;95908;-64
2021/11/23 05:28:03;;;;;;;5.00;4.50;;;0.20;99.90;-0.20;101543.00;;;;4974194;28;110288;-63
2021/11/23 05:30:29;;;;;;;6.03;4.67;;;0.10;99.90;-0.20;101532.00;;;;4959161;28;95607;-62
2021/11/23 05:32:54;;;;;;;6.40;4.20;;;0.10;99.90;-0.20;101542.00;;;;4958350;28;114089;-62
2021/11/23 05:35:20;;;;;;;9.53;4.43;;;0.10;99.90;-0.10;101539.00;;;;4974221;28;83010;-64
2021/11/23 05:37:46;;;;;;;7.23;4.53;;;0.20;99.90;-0.10;101545.00;;;;4978313;28;82525;-63
2021/11/23 05:40:12;;;;;;;7.60;4.83;;;0.30;99.90;-0.10;101547.00;;;;4965577;28;82057;-64
2021/11/23 05:42:38;;;;;;;9.50;4.87;;;0.20;99.90;-0.10;101553.00;;;;4958064;28;83472;-62
2021/11/23 05:45:08;;;;;;;6.57;4.63;;;0.20;99.90;0.00;101559.00;;;;4960276;28;82948;-62
2021/11/23 05:47:37;;;;;;;9.63;5.83;;;0.30;99.90;0.00;101551.00;;;;4958212;28;83689;-63
2021/11/23 05:50:05;;;;;;;9.23;5.27;;;0.30;99.90;0.10;101552.00;;;;4978436;28;82596;-63
2021/11/23 05:52:31;;;;;;;7.00;5.07;;;0.50;99.90;0.20;101551.00;;;;4967859;28;90364;-62
2021/11/23 05:54:57;;;;;;;8.60;5.53;;;0.50;99.90;0.20;101545.00;;;;4958960;28;97462;-63
2021/11/23 05:57:23;;;;;;;7.70;5.50;;;1.30;99.90;0.30;101545.00;;;;4958495;28;82695;-63
2021/11/23 05:59:48;;;;;;;8.60;5.70;;;0.50;99.90;0.40;101555.00;;;;4958766;28;82637;-62
2021/11/23 06:02:14;;;;;;;7.87;4.83;;;0.70;99.90;0.40;101547.00;;;;4956112;28;106181;-62
2021/11/23 06:04:40;;;;;;;7.10;5.13;;;0.80;99.90;0.50;101548.00;;;;4959852;28;112248;-63
2021/11/23 06:07:05;;;;;;;7.23;5.07;;;1.00;99.90;0.50;101548.00;;;;4963992;28;82879;-63
2021/11/23 06:09:31;;;;;;;6.50;4.97;;;1.40;99.90;0.60;101559.00;;;;4977527;28;106486;-64
2021/11/23 06:12:00;;;;;;;5.77;4.97;;;0.80;99.90;0.60;101549.00;;;;4976616;28;98196;-62
2021/11/23 06:14:25;;;;;;;9.93;5.93;;;0.90;99.90;0.70;101559.00;;;;4977308;28;84515;-62
2021/11/23 06:16:51;;;;;;;4.90;4.50;;;1.00;99.90;0.70;101562.00;;;;4977486;28;91634;-63
2021/11/23 06:19:17;;;;;;;9.40;5.97;;;0.90;99.90;0.70;101564.00;;;;4981190;28;82677;-62
2021/11/23 06:21:43;;;;;;;7.90;5.67;;;1.10;99.90;0.70;101558.00;;;;4980087;28;113782;-63
2021/11/23 06:24:10;;;;;;;6.90;4.53;;;1.00;99.90;0.80;101551.00;;;;4981517;28;83862;-63
2021/11/23 06:26:36;;;;;;;7.47;5.27;;;1.00;99.90;0.80;101573.00;;;;4981907;28;82649;-62
2021/11/23 06:29:04;;;;;;;8.00;5.37;;;1.10;99.90;0.80;101567.00;;;;4976399;28;81849;-62
2021/11/23 06:31:30;;;;;;;7.93;4.43;;;0.50;99.90;0.80;101569.00;;;;4979910;28;82982;-63
2021/11/23 06:34:00;;;;;;;8.40;5.90;;;1.00;99.90;0.80;101581.00;;;;4969817;28;82761;-62
2021/11/23 06:36:25;;;;;;;5.37;4.87;;;1.80;99.90;0.80;101577.00;;;;4980647;28;85356;-62
2021/11/23 06:38:51;;;;;;;6.80;4.87;;;1.10;99.90;0.80;101574.00;;;;4966882;28;93764;-62
2021/11/23 06:41:18;;;;;;;9.37;5.87;;;1.60;99.90;0.90;101582.00;;;;4960655;28;83629;-62
2021/11/23 06:43:45;;;;;;;6.53;4.73;;;1.70;99.90;0.90;101574.00;;;;4960366;28;82982;-61
2021/11/23 06:46:11;;;;;;;8.93;5.43;;;1.20;99.90;1.00;101570.00;;;;4963961;28;82482;-62
2021/11/23 06:48:36;;;;;;;7.90;4.80;;;1.30;99.90;1.00;101571.00;;;;4981045;28;95670;-63
2021/11/23 06:51:02;;;;;;;6.10;5.40;;;1.30;99.90;1.10;101573.00;;;;4981100;28;82548;-62
2021/11/23 06:53:28;;;;;;;9.03;5.43;;;2.20;99.90;1.10;101565.00;;;;4980288;28;111773;-62
2021/11/23 06:55:54;;;;;;;5.47;4.60;;;1.40;99.90;1.20;101580.00;;;;4981777;28;82873;-62
2021/11/23 06:58:21;;;;;;;11.53;4.70;;;1.40;99.90;1.20;101579.00;;;;4980454;28;108359;-63
2021/11/23 07:00:47;;;;;;;8.83;5.07;;;2.40;99.90;1.30;101577.00;;;;4965343;28;83830;-62
2021/11/23 07:03:12;;;;;;;6.23;4.07;;;1.90;99.90;1.40;101587.00;;;;4973471;28;113535;-63
2021/11/23 07:05:38;;;;;;;7.60;4.70;;;1.60;99.90;1.50;101590.00;;;;4980264;28;110542;-63
2021/11/23 07:08:04;;;;;;;8.90;5.47;;;1.70;99.90;1.60;101593.00;;;;4980817;28;82921;-63
2021/11/23 07:10:30;;;;;;;4.83;4.37;;;2.30;99.90;1.60;101590.00;;;;4979942;28;109759;-63
2021/11/23 07:12:56;;;;;;;9.03;4.77;;;1.80;99.90;1.60;101588.00;;;;4980633;28;83509;-61
2021/11/23 07:15:21;;;;;;;6.57;5.33;;;2.30;99.90;1.60;101585.00;;;;4980434;28;97457;-63
2021/11/23 07:17:47;;;;;;;7.13;4.30;;;2.20;99.90;1.60;101598.00;;;;4981234;28;81977;-64
2021/11/23 07:20:13;;;;;;;5.60;4.30;;;1.80;99.90;1.60;101606.00;;;;4980018;28;111690;-64
2021/11/23 07:22:38;;;;;;;4.60;3.73;;;1.90;99.90;1.60;101598.00;;;;4979409;28;112778;-63
2021/11/23 07:25:05;;;;;;;6.00;4.13;;;1.80;99.90;1.60;101591.00;;;;4979144;28;110776;-63
2021/11/23 07:27:30;;;;;;;7.20;4.10;;;1.90;99.90;1.70;101594.00;;;;4972531;28;83069;-64
2021/11/23 07:29:56;;;;;;;5.63;4.27;;;2.00;99.90;2.00;101608.00;;;;4966118;28;83189;-64
2021/11/23 07:32:22;;;;;;;11.70;5.10;;;2.00;99.90;2.20;101605.00;;;;4975447;28;112894;-64
2021/11/23 07:34:48;;;;;;;5.23;3.97;;;2.30;99.90;2.20;101602.00;;;;4977243;28;82596;-64
2021/11/23 07:37:13;;;;;;;4.27;3.87;;;2.70;99.90;2.30;101621.00;;;;4977473;28;82707;-64
2021/11/23 07:39:39;;;;;;;5.03;3.43;;;2.90;99.90;2.30;101625.00;;;;4976304;28;112613;-63
2021/11/23 07:42:05;;;;;;;6.43;4.47;;;2.60;99.90;2.40;101616.00;;;;4977100;28;83040;-63
2021/11/23 07:44:31;;;;;;;6.97;4.60;;;2.60;99.90;2.30;101623.00;;;;4977244;28;82596;-64
2021/11/23 07:46:57;;;;;;;3.90;3.43;;;3.20;99.90;2.30;101612.00;;;;4977041;28;94503;-63
2021/11/23 07:49:23;;;;;;;6.30;4.23;;;2.60;99.90;2.30;101595.00;;;;4973577;28;113071;-64
2021/11/23 07:51:49;;;;;;;8.40;3.90;;;3.50;99.90;2.30;101607.00;;;;4970745;28;83538;-64
2021/11/23 07:54:14;;;;;;;6.90;2.87;;;2.60;99.90;2.30;101606.00;;;;4975916;28;109625;-64
2021/11/23 07:56:41;;;;;;;5.07;4.07;;;2.60;99.90;2.30;101604.00;;;;4970925;28;108083;-63
2021/11/23 07:59:08;;;;;;;4.83;3.83;;;3.10;99.90;2.30;101601.00;;;;4977479;28;82838;-63
2021/11/23 08:01:34;;;;;;;4.60;3.40;;;2.60;99.90;2.30;101609.00;;;;4976883;28;83499;-64
2021/11/23 08:04:00;;;;;;;5.03;3.47;;;2.70;99.90;2.40;101613.00;;;;4957296;28;109460;-63
2021/11/23 08:06:26;;;;;;;4.90;3.60;;;3.10;99.90;2.40;101625.00;;;;4977552;28;81813;-63
2021/11/23 08:08:52;;;;;;;5.97;3.70;;;2.60;99.90;2.40;101618.00;;;;4976416;28;97572;-64
2021/11/23 08:11:18;;;;;;;5.10;3.57;;;2.70;99.90;2.50;101621.00;;;;4976639;28;112314;-64
2021/11/23 08:13:43;;;;;;;4.00;3.23;;;3.40;99.90;2.50;101624.00;;;;4976492;28;83672;-63
2021/11/23 08:16:09;;;;;;;5.03;4.10;;;3.20;99.90;2.50;101621.00;;;;4973151;28;82882;-65
2021/11/23 08:18:35;;;;;;;6.60;3.87;;;2.80;99.90;2.50;101627.00;;;;4958506;28;84028;-63
2021/11/23 08:21:03;;;;;;;4.53;3.53;;;2.20;99.90;2.60;101622.00;;;;4977068;28;82952;-64
2021/11/23 08:23:29;;;;;;;4.07;3.67;;;2.80;99.90;2.60;101623.00;;;;4978790;28;82907;-64
2021/11/23 08:25:56;;;;;;;4.90;4.17;;;3.40;99.90;2.70;101621.00;;;;4980849;28;109079;-64
2021/11/23 08:28:25;;;;;;;5.47;3.37;;;2.90;99.90;2.70;101622.00;;;;4977054;28;82989;-63
2021/11/23 08:30:52;;;;;;;3.87;3.17;;;2.90;99.90;2.70;101624.00;;;;4977431;28;82940;-63
2021/11/23 08:33:18;;;;;;;6.87;3.53;;;3.50;99.90;2.70;101633.00;;;;4976691;28;82562;-63
2021/11/23 08:35:44;;;;;;;6.37;3.90;;;3.40;99.90;2.70;101629.00;;;;4976240;28;108949;-63
2021/11/23 08:38:11;;;;;;;4.37;3.07;;;2.90;99.90;2.80;101654.00;;;;4975648;28;83734;-63
2021/11/23 08:40:38;;;;;;;6.87;3.53;;;3.20;99.90;2.80;101640.00;;;;4975890;28;83896;-63
2021/11/23 08:43:07;;;;;;;6.80;3.60;;;3.10;99.90;2.80;101658.00;;;;4975907;28;82762;-63
2021/11/23 08:45:33;;;;;;;6.63;2.67;;;4.10;99.90;2.90;101654.00;;;;4976777;28;90467;-64
2021/11/23 08:47:59;;;;;;;6.10;3.87;;;3.10;99.90;2.90;101648.00;;;;4976186;28;83552;-63
2021/11/23 08:50:25;;;;;;;4.13;3.23;;;3.20;99.90;2.90;101660.00;;;;4972754;28;89996;-64
2021/11/23 08:52:51;;;;;;;5.97;4.60;;;3.20;99.90;2.90;101658.00;;;;4955020;28;82753;-64
2021/11/23 08:55:17;;;;;;;7.37;4.20;;;3.10;99.90;2.90;101664.00;;;;4976770;28;81966;-64
2021/11/23 08:57:43;;;;;;;6.87;3.67;;;3.30;99.90;2.90;101668.00;;;;4975978;28;82716;-65
2021/11/23 09:00:17;;;;;;;4.17;3.80;;;3.10;99.90;2.90;101665.00;;;;4975556;28;111894;-63
2021/11/23 09:02:46;;;;;;;5.30;3.90;;;3.10;99.90;2.80;101662.00;;;;4975319;28;83598;-63
2021/11/23 09:05:13;;;;;;;8.43;4.73;;;3.10;99.90;2.80;101654.00;;;;4976505;28;83054;-64
2021/11/23 09:07:41;;;;;;;4.70;3.83;;;3.10;99.90;2.80;101659.00;;;;4951846;28;84471;-63
2021/11/23 09:10:12;;;;;;;6.40;3.10;;;3.10;99.90;2.80;101658.00;;;;4972768;28;83167;-64
2021/11/23 09:12:37;;;;;;;6.07;3.63;;;3.60;99.90;2.80;101658.00;;;;4975780;28;82930;-65
2021/11/23 09:15:04;;;;;;;5.30;3.87;;;3.10;99.90;2.90;101662.00;;;;4974646;28;108401;-65
2021/11/23 09:17:29;;;;;;;5.90;3.67;;;3.10;99.90;2.90;101674.00;;;;4974914;28;94763;-64
2021/11/23 09:19:55;;;;;;;9.37;3.90;;;3.00;99.90;2.90;101678.00;;;;4974929;28;83518;-62
2021/11/23 09:22:21;;;;;;;5.30;3.70;;;3.10;99.90;2.90;101682.00;;;;4975694;28;83165;-63
2021/11/23 09:24:47;;;;;;;6.33;3.67;;;3.10;99.90;2.90;101682.00;;;;4975465;28;82448;-63
2021/11/23 09:27:13;;;;;;;5.53;3.60;;;3.20;99.90;3.00;101686.00;;;;4973882;28;112732;-63
2021/11/23 09:29:40;;;;;;;4.83;3.80;;;3.30;99.90;3.00;101691.00;;;;4974695;28;113698;-63
2021/11/23 09:32:07;;;;;;;6.37;4.53;;;3.20;99.90;3.00;101690.00;;;;4976206;28;83350;-63
2021/11/23 09:34:33;;;;;;;13.67;4.80;;;3.20;99.90;3.00;101698.00;;;;4975417;28;82907;-64
2021/11/23 09:36:59;;;;;;;8.77;5.53;;;3.30;99.90;3.00;101686.00;;;;4974702;28;92996;-64
2021/11/23 09:39:25;;;;;;;8.03;4.00;;;3.20;99.90;3.00;101693.00;;;;4974470;28;112184;-63
2021/11/23 09:41:52;;;;;;;5.97;4.20;;;4.00;99.90;2.90;101696.00;;;;4975402;28;82670;-63
2021/11/23 09:44:18;;;;;;;6.47;4.03;;;3.80;99.90;2.90;101694.00;;;;4974582;28;102764;-64
2021/11/23 09:46:44;;;;;;;15.37;5.40;;;3.10;99.90;2.90;101692.00;;;;4974616;28;83472;-64
2021/11/23 09:49:10;;;;;;;5.77;4.97;;;3.20;99.90;2.90;101688.00;;;;4974567;28;84263;-63
2021/11/23 09:51:37;;;;;;;6.07;4.93;;;3.10;99.90;2.90;101685.00;;;;4975737;28;84039;-64
2021/11/23 09:54:09;;;;;;;5.70;3.77;;;3.10;99.90;2.90;101687.00;;;;4959931;28;82969;-64
2021/11/23 09:56:38;;;;;;;6.87;4.83;;;3.20;99.90;2.90;101680.00;;;;4978592;28;82930;-63
2021/11/23 09:59:06;;;;;;;8.77;5.30;;;4.10;99.90;2.90;101680.00;;;;4978629;28;95461;-64
2021/11/23 10:01:54;;;;;;;10.73;4.67;;;3.10;99.90;2.90;101677.00;;;;4978388;28;83298;-64
2021/11/23 10:04:22;;;;;;;6.63;4.73;;;3.30;99.90;3.00;101676.00;;;;4978268;28;82620;-63
2021/11/23 10:07:08;;;;;;;6.57;4.23;;;3.10;99.90;3.00;101672.00;;;;4978251;28;83879;-62
2021/11/23 10:09:42;;;;;;;7.27;4.03;;;3.20;99.90;3.00;101666.00;;;;4978693;28;82632;-63
2021/11/23 10:12:27;;;;;;;6.60;4.83;;;3.20;99.90;3.00;101674.00;;;;4977994;28;84088;-65
2021/11/23 10:15:14;;;;;;;6.33;5.10;;;3.30;99.90;3.00;101679.00;;;;4977865;28;82945;-63
2021/11/23 10:17:45;;;;;;;5.50;4.57;;;3.30;99.90;3.10;101668.00;;;;4977632;28;83565;-62
2021/11/23 10:20:33;;;;;;;8.20;5.50;;;3.80;99.90;3.10;101661.00;;;;4978290;28;84553;-62
2021/11/23 10:23:17;;;;;;;5.50;4.60;;;3.40;99.90;3.10;101665.00;;;;4978110;28;82905;-64
2021/11/23 10:25:46;;;;;;;7.47;4.63;;;3.50;99.90;3.20;101656.00;;;;4978399;28;82623;-62
2021/11/23 10:28:12;;;;;;;9.90;5.27;;;3.50;99.90;3.20;101653.00;;;;4977880;28;84010;-63
2021/11/23 10:30:44;;;;;;;5.47;4.47;;;3.40;99.90;3.30;101645.00;;;;4978640;28;82962;-64
2021/11/23 10:33:10;;;;;;;7.10;4.97;;;3.50;99.90;3.30;101644.00;;;;4976934;28;82934;-63
2021/11/23 10:35:42;;;;;;;6.97;5.27;;;3.60;99.90;3.30;101655.00;;;;4974055;28;82057;-63
2021/11/23 10:38:09;;;;;;;5.87;4.50;;;3.60;99.90;3.40;101648.00;;;;4973541;28;83848;-64
2021/11/23 10:40:38;;;;;;;6.03;4.90;;;3.60;99.90;3.40;101666.00;;;;4977045;28;83669;-63
2021/11/23 10:43:09;;;;;;;7.77;4.97;;;3.60;99.90;3.50;101653.00;;;;4953738;28;84293;-63
2021/11/23 10:45:44;;;;;;;7.63;4.73;;;3.70;99.90;3.60;101656.00;;;;4977399;28;82858;-64
2021/11/23 10:48:14;;;;;;;6.80;5.07;;;3.80;99.90;3.70;101674.00;;;;4977871;28;83524;-62
2021/11/23 10:50:42;;;;;;;4.37;3.70;;;3.80;99.90;3.80;101666.00;;;;4975450;28;82505;-63